Time;durP1;ratioP1;P1;durP2;ratioP2;P2;SDS_P1;SDS_P2;PMS_P1;PMS_P2;Temp;Humidity;BMP_temperature;BMP_pressure;BME280_temperature;BME280_humidity;BME280_pressure;Samples;Min_cycle;Max_cycle;Signal;HPM_P1;HPM_P2
2022/01/08 00:02:20;;;;;;;11.83;2.47;;;3.40;99.90;;;;;;5094426;28;20084;-71
2022/01/08 00:04:46;;;;;;;10.30;2.10;;;3.40;99.90;;;;;;5094246;28;20048;-71
2022/01/08 00:07:12;;;;;;;8.43;1.97;;;3.40;99.90;;;;;;5094509;28;20442;-71
2022/01/08 00:09:37;;;;;;;13.17;3.37;;;3.30;99.90;;;;;;5093823;28;20048;-71
2022/01/08 00:12:03;;;;;;;10.40;2.13;;;3.30;99.90;;;;;;5093303;28;20092;-71
2022/01/08 00:14:30;;;;;;;8.73;2.00;;;3.20;99.90;;;;;;5093176;28;20134;-71
2022/01/08 00:16:55;;;;;;;9.98;2.17;;;3.20;99.90;;;;;;5093311;28;20051;-71
2022/01/08 00:19:21;;;;;;;8.20;2.10;;;3.10;99.90;;;;;;5092974;28;20036;-71
2022/01/08 00:21:47;;;;;;;14.27;2.63;;;3.10;99.90;;;;;;5094094;28;20143;-71
2022/01/08 00:24:12;;;;;;;9.03;2.07;;;3.10;99.90;;;;;;5094142;28;20043;-71
2022/01/08 00:26:38;;;;;;;10.57;1.77;;;3.10;99.90;;;;;;5093815;28;20141;-71
2022/01/08 00:29:04;;;;;;;10.73;2.30;;;3.10;99.90;;;;;;5094100;28;20048;-71
2022/01/08 00:31:30;;;;;;;11.90;3.33;;;3.10;99.90;;;;;;5094077;28;20044;-71
2022/01/08 00:33:56;;;;;;;8.43;2.25;;;3.10;99.90;;;;;;5093720;28;20109;-71
2022/01/08 00:36:21;;;;;;;13.47;2.80;;;3.10;99.90;;;;;;5093192;28;20044;-71
2022/01/08 00:38:47;;;;;;;10.57;2.20;;;3.10;99.90;;;;;;5093508;28;20075;-71
2022/01/08 00:41:13;;;;;;;13.07;2.47;;;3.10;99.90;;;;;;5093870;28;20127;-71
2022/01/08 00:43:38;;;;;;;9.53;1.77;;;3.10;99.90;;;;;;5093540;28;20040;-71
2022/01/08 00:46:04;;;;;;;8.10;2.00;;;3.10;99.90;;;;;;5093820;28;20051;-71
2022/01/08 00:48:30;;;;;;;9.00;2.23;;;3.10;99.90;;;;;;5093756;28;20434;-71
2022/01/08 00:50:56;;;;;;;10.00;1.77;;;3.10;99.90;;;;;;5093420;28;20105;-71
2022/01/08 00:53:22;;;;;;;9.27;1.90;;;2.90;99.90;;;;;;5093688;28;20278;-71
2022/01/08 00:55:47;;;;;;;8.93;1.80;;;3.10;99.90;;;;;;5093403;28;20127;-71
2022/01/08 00:58:13;;;;;;;13.73;2.30;;;3.10;99.90;;;;;;5093644;28;20552;-71
2022/01/08 01:00:41;;;;;;;11.77;2.45;;;3.10;99.90;;;;;;5092589;28;20047;-71
2022/01/08 01:03:08;;;;;;;8.00;2.30;;;2.90;99.90;;;;;;5093548;28;20063;-71
2022/01/08 01:05:34;;;;;;;10.00;3.20;;;3.00;99.90;;;;;;5093516;28;20048;-71
2022/01/08 01:08:00;;;;;;;10.82;2.05;;;3.00;99.90;;;;;;5093137;28;20047;-71
2022/01/08 01:10:27;;;;;;;8.13;2.10;;;3.00;99.90;;;;;;5092363;28;20044;-71
2022/01/08 01:12:53;;;;;;;6.80;1.73;;;3.10;99.90;;;;;;5091861;28;20040;-71
2022/01/08 01:15:19;;;;;;;8.07;2.23;;;3.10;99.90;;;;;;5092175;28;20040;-70
2022/01/08 01:17:46;;;;;;;8.93;2.00;;;3.10;99.90;;;;;;5092522;28;20044;-71
2022/01/08 01:20:14;;;;;;;9.30;1.92;;;3.10;99.90;;;;;;5093043;28;20144;-70
2022/01/08 01:22:53;;;;;;;9.30;1.75;;;3.20;99.90;;;;;;5092591;28;20055;-70
2022/01/08 01:25:26;;;;;;;8.75;1.75;;;3.20;99.90;;;;;;5093423;28;20082;-70
2022/01/08 01:28:05;;;;;;;11.00;1.70;;;3.20;99.90;;;;;;5092948;28;20454;-70
2022/01/08 01:49:15;;;;;;;4.38;0.98;;;3.20;99.90;;;;;;5093102;28;20051;-70
2022/01/08 01:51:41;;;;;;;4.77;0.80;;;3.10;99.90;;;;;;5092911;28;20040;-70
2022/01/08 01:54:06;;;;;;;3.33;0.77;;;3.10;99.90;;;;;;5093022;28;20510;-71
2022/01/08 01:56:32;;;;;;;4.33;0.87;;;3.10;99.90;;;;;;5093384;28;20091;-71
2022/01/08 01:58:58;;;;;;;2.90;0.70;;;3.10;99.90;;;;;;5091208;28;20475;-71
2022/01/08 02:01:24;;;;;;;4.37;0.80;;;3.00;99.90;;;;;;5092840;28;20054;-71
2022/01/08 02:03:50;;;;;;;5.93;1.27;;;3.00;99.90;;;;;;5092515;28;20541;-71
2022/01/08 02:06:16;;;;;;;6.60;0.90;;;3.00;99.90;;;;;;5092816;28;20044;-71
2022/01/08 02:08:42;;;;;;;7.00;1.53;;;2.90;99.90;;;;;;5092735;28;20070;-70
2022/01/08 02:11:08;;;;;;;5.13;0.90;;;2.90;99.90;;;;;;5093489;28;20040;-70
2022/01/08 02:13:35;;;;;;;5.80;0.90;;;2.90;99.90;;;;;;5096754;28;20062;-70
2022/01/08 02:16:01;;;;;;;3.03;0.95;;;2.90;99.90;;;;;;5095424;28;20444;-70
2022/01/08 02:18:28;;;;;;;6.18;1.00;;;2.80;99.90;;;;;;5095507;28;20117;-70
2022/01/08 02:20:55;;;;;;;6.75;1.30;;;2.90;99.90;;;;;;5096249;28;20416;-70
2022/01/08 02:23:22;;;;;;;4.35;1.10;;;2.90;99.90;;;;;;5096490;28;20052;-69
2022/01/08 02:25:49;;;;;;;7.07;1.63;;;3.00;99.90;;;;;;5095206;28;20052;-70
2022/01/08 02:28:15;;;;;;;3.42;1.10;;;3.00;99.90;;;;;;5096355;28;20062;-70
2022/01/08 02:30:40;;;;;;;9.15;1.48;;;3.00;99.90;;;;;;5095391;28;20368;-70
2022/01/08 02:33:06;;;;;;;12.70;1.73;;;3.00;99.90;;;;;;5095749;28;20055;-70
2022/01/08 02:35:33;;;;;;;9.63;1.37;;;3.10;99.90;;;;;;5096255;28;20044;-70
2022/01/08 02:37:59;;;;;;;6.07;1.10;;;3.10;99.90;;;;;;5094877;28;20151;-70
2022/01/08 02:40:25;;;;;;;8.10;1.40;;;3.10;99.90;;;;;;5096186;28;20130;-70
2022/01/08 02:42:53;;;;;;;9.70;1.70;;;3.10;99.90;;;;;;5094651;28;20079;-71
2022/01/08 02:45:21;;;;;;;3.78;0.80;;;3.10;99.90;;;;;;5096140;28;20448;-70
2022/01/08 02:47:48;;;;;;;7.63;1.30;;;3.10;99.90;;;;;;5096050;28;20052;-70
2022/01/08 02:50:15;;;;;;;8.52;1.30;;;3.10;99.90;;;;;;5096010;28;20048;-70
2022/01/08 02:52:43;;;;;;;7.03;1.17;;;3.10;99.90;;;;;;5096011;28;20048;-70
2022/01/08 02:55:09;;;;;;;8.15;1.20;;;3.10;99.90;;;;;;5095576;28;20887;-70
2022/01/08 02:57:35;;;;;;;5.10;1.25;;;3.10;99.90;;;;;;5095956;28;20396;-70
2022/01/08 03:00:01;;;;;;;4.07;1.00;;;3.10;99.90;;;;;;5095461;28;20058;-71
2022/01/08 03:02:26;;;;;;;5.23;1.00;;;3.10;99.90;;;;;;5094951;28;20129;-70
2022/01/08 03:04:54;;;;;;;9.40;1.20;;;3.20;99.90;;;;;;5095415;28;20048;-71
2022/01/08 03:07:20;;;;;;;8.13;1.30;;;3.10;99.90;;;;;;5095635;28;20563;-71
2022/01/08 03:09:55;;;;;;;6.57;1.20;;;3.20;99.90;;;;;;5095793;28;20124;-70
2022/01/08 03:12:21;;;;;;;6.88;1.20;;;3.10;99.90;;;;;;5095324;28;20476;-70
2022/01/08 03:14:47;;;;;;;5.00;1.10;;;3.10;99.90;;;;;;5095907;28;20043;-70
2022/01/08 03:17:12;;;;;;;9.80;1.13;;;3.00;99.90;;;;;;5095200;28;20097;-70
2022/01/08 03:19:39;;;;;;;7.53;1.40;;;3.00;99.90;;;;;;5095257;28;20533;-70
2022/01/08 03:22:05;;;;;;;4.93;1.20;;;3.00;99.90;;;;;;5094985;28;20090;-70
2022/01/08 03:24:31;;;;;;;6.97;1.25;;;3.00;99.90;;;;;;5094777;28;20048;-70
2022/01/08 03:26:57;;;;;;;6.50;1.23;;;3.00;99.90;;;;;;5095041;28;20052;-70
2022/01/08 03:29:24;;;;;;;9.07;1.20;;;2.90;99.90;;;;;;5095279;28;20442;-70
2022/01/08 03:31:49;;;;;;;7.32;1.50;;;3.00;99.90;;;;;;5094047;28;20105;-70
2022/01/08 03:34:15;;;;;;;9.27;1.40;;;2.90;99.90;;;;;;5094846;28;20036;-70
2022/01/08 03:36:41;;;;;;;6.27;1.00;;;2.90;99.90;;;;;;5095096;28;20044;-70
2022/01/08 03:39:07;;;;;;;7.87;1.83;;;2.90;99.90;;;;;;5094692;28;20127;-70
2022/01/08 03:41:32;;;;;;;6.33;1.30;;;2.90;99.90;;;;;;5095048;28;20495;-70
2022/01/08 03:43:58;;;;;;;5.40;1.40;;;2.80;99.90;;;;;;5094664;28;20079;-70
2022/01/08 03:46:27;;;;;;;4.90;1.17;;;2.90;99.90;;;;;;5094902;28;20090;-70
2022/01/08 03:49:26;;;;;;;7.30;1.40;;;2.90;99.90;;;;;;5094985;28;20082;-70
2022/01/08 03:51:45;;;;;;;13.63;1.52;;;2.90;99.90;;;;;;5091802;28;20063;-70
2022/01/08 03:54:13;;;;;;;6.30;1.50;;;2.90;99.90;;;;;;5127805;27;20040;-70
2022/01/08 03:56:38;;;;;;;6.18;1.77;;;2.90;99.90;;;;;;5094711;28;20075;-70
2022/01/08 03:59:04;;;;;;;7.83;1.70;;;2.90;99.90;;;;;;5094306;28;20464;-70
2022/01/08 04:01:30;;;;;;;8.10;1.57;;;2.90;99.90;;;;;;5094594;28;20609;-70
2022/01/08 04:03:56;;;;;;;7.13;1.40;;;2.90;99.90;;;;;;5094698;28;20040;-70
2022/01/08 04:06:22;;;;;;;7.82;1.35;;;2.90;99.90;;;;;;5094321;28;20475;-70
2022/01/08 04:08:55;;;;;;;9.70;1.40;;;2.90;99.90;;;;;;5093326;28;20040;-70
2022/01/08 04:11:21;;;;;;;10.20;1.50;;;2.90;99.90;;;;;;5094273;28;20185;-70
2022/01/08 04:13:47;;;;;;;7.60;1.40;;;2.90;99.90;;;;;;5094394;28;20475;-70
2022/01/08 04:16:17;;;;;;;9.83;1.40;;;2.90;99.90;;;;;;5092871;28;20044;-70
2022/01/08 04:18:43;;;;;;;5.30;1.25;;;2.70;99.90;;;;;;5094272;28;20123;-70
2022/01/08 04:21:52;;;;;;;7.83;1.50;;;2.80;99.90;;;;;;5093536;28;20096;-70
2022/01/08 04:23:57;;;;;;;9.50;1.63;;;2.80;99.90;;;;;;5078353;28;20048;-70
2022/01/08 04:26:23;;;;;;;6.68;1.58;;;2.80;99.90;;;;;;5093773;28;20048;-70
2022/01/08 04:28:50;;;;;;;6.35;1.33;;;2.70;99.90;;;;;;5094136;28;20087;-70
2022/01/08 04:31:16;;;;;;;4.60;1.10;;;2.90;99.90;;;;;;5093844;28;20368;-70
2022/01/08 04:33:41;;;;;;;4.77;1.03;;;2.90;99.90;;;;;;5092742;28;20078;-70
2022/01/08 04:36:08;;;;;;;5.13;1.03;;;2.90;99.90;;;;;;5075066;28;20471;-70
2022/01/08 04:38:34;;;;;;;5.07;1.20;;;3.10;99.90;;;;;;5092699;28;20081;-70
2022/01/08 04:41:00;;;;;;;8.63;1.20;;;3.00;99.90;;;;;;5093967;28;20043;-70
2022/01/08 04:43:26;;;;;;;7.28;1.63;;;2.90;99.90;;;;;;5093609;28;20063;-70
2022/01/08 04:45:52;;;;;;;8.30;1.30;;;3.00;99.90;;;;;;5093999;28;20040;-70
2022/01/08 04:48:18;;;;;;;8.23;1.30;;;3.00;99.90;;;;;;5093484;28;20396;-70
2022/01/08 04:50:44;;;;;;;5.13;1.15;;;3.10;99.90;;;;;;5093724;28;20075;-70
2022/01/08 04:53:10;;;;;;;4.67;1.00;;;2.90;99.90;;;;;;5093406;28;20098;-71
2022/01/08 04:55:37;;;;;;;7.25;1.02;;;3.00;99.90;;;;;;5093918;28;20308;-70
2022/01/08 04:58:05;;;;;;;5.20;1.20;;;3.20;99.90;;;;;;5093648;28;20036;-70
2022/01/08 05:00:32;;;;;;;6.43;1.50;;;3.10;99.90;;;;;;5093555;28;20059;-71
2022/01/08 05:02:58;;;;;;;6.45;1.20;;;2.90;99.90;;;;;;5093509;28;20044;-70
2022/01/08 05:05:24;;;;;;;6.82;1.10;;;3.00;99.90;;;;;;5092017;28;20048;-70
2022/01/08 05:07:50;;;;;;;7.40;1.55;;;2.90;99.90;;;;;;5093448;28;20051;-70
2022/01/08 05:10:16;;;;;;;4.57;1.30;;;2.90;99.90;;;;;;5091931;28;20044;-70
2022/01/08 05:12:42;;;;;;;6.43;1.50;;;2.90;99.90;;;;;;5092396;28;20511;-70
2022/01/08 05:15:08;;;;;;;10.00;1.67;;;2.80;99.90;;;;;;5092769;28;20040;-71
2022/01/08 05:17:39;;;;;;;9.13;2.10;;;2.90;99.90;;;;;;5075430;28;20044;-70
2022/01/08 05:20:08;;;;;;;12.52;1.60;;;2.90;99.90;;;;;;5091832;28;20105;-70
2022/01/08 05:25:12;;;;;;;6.45;1.60;;;2.80;99.90;;;;;;5092970;28;20052;-71
2022/01/08 05:27:38;;;;;;;7.60;1.90;;;2.80;99.90;;;;;;5093340;28;20123;-70
2022/01/08 05:30:04;;;;;;;5.93;1.47;;;2.60;99.90;;;;;;5092170;28;20758;-70
2022/01/08 05:32:30;;;;;;;6.95;1.38;;;2.70;99.90;;;;;;5092737;28;20040;-70
2022/01/08 05:34:56;;;;;;;8.50;1.30;;;3.30;99.90;;;;;;5093463;28;20130;-70
2022/01/08 05:37:21;;;;;;;6.37;1.37;;;2.70;99.90;;;;;;5092818;28;20472;-71
2022/01/08 05:39:47;;;;;;;7.87;1.40;;;2.50;99.90;;;;;;5093003;28;20472;-70
2022/01/08 05:42:13;;;;;;;8.67;1.33;;;2.50;99.90;;;;;;5091511;28;20048;-71
2022/01/08 05:44:39;;;;;;;8.18;1.65;;;2.60;99.90;;;;;;5092963;28;20090;-70
2022/01/08 05:47:05;;;;;;;6.88;1.50;;;2.50;99.90;;;;;;5095782;28;20056;-70
2022/01/08 05:49:31;;;;;;;7.57;1.73;;;2.30;99.90;;;;;;5096875;28;20075;-71
2022/01/08 05:51:57;;;;;;;12.30;2.03;;;2.40;99.90;;;;;;5095897;28;20453;-70
2022/01/08 05:54:23;;;;;;;10.03;1.90;;;2.30;99.90;;;;;;5096738;28;20047;-71
2022/01/08 05:56:50;;;;;;;7.67;2.30;;;2.20;99.90;;;;;;5097188;28;20274;-70
2022/01/08 05:59:17;;;;;;;8.35;2.55;;;2.20;99.90;;;;;;5095397;28;20048;-70
2022/01/08 06:01:42;;;;;;;9.02;2.40;;;2.30;99.90;;;;;;5097052;28;20074;-70
2022/01/08 06:04:08;;;;;;;10.80;2.70;;;2.40;99.90;;;;;;5096870;28;20419;-71
2022/01/08 06:06:35;;;;;;;14.07;3.30;;;2.20;99.90;;;;;;5096536;28;20048;-71
2022/01/08 06:09:02;;;;;;;10.57;3.42;;;2.20;99.90;;;;;;5096787;28;20270;-71
2022/01/08 06:11:28;;;;;;;10.63;3.05;;;2.20;99.90;;;;;;5095265;28;20464;-70
2022/01/08 06:13:53;;;;;;;11.30;3.47;;;2.20;99.90;;;;;;5096390;28;20080;-70
2022/01/08 06:16:19;;;;;;;11.93;2.97;;;2.10;99.90;;;;;;5096371;28;20129;-71
2022/01/08 06:18:45;;;;;;;11.80;3.33;;;2.20;99.90;;;;;;5096512;28;20089;-70
2022/01/08 06:21:11;;;;;;;11.05;2.80;;;2.10;99.90;;;;;;5096263;28;20047;-70
2022/01/08 06:23:37;;;;;;;14.70;2.73;;;2.10;99.90;;;;;;5095095;28;20059;-70
2022/01/08 06:26:04;;;;;;;14.10;2.70;;;2.10;99.90;;;;;;5096673;28;20429;-71
2022/01/08 06:28:31;;;;;;;8.85;2.38;;;2.10;99.90;;;;;;5096137;28;20051;-71
2022/01/08 06:30:56;;;;;;;13.55;3.00;;;2.20;99.90;;;;;;5095132;28;20052;-70
2022/01/08 06:33:22;;;;;;;7.73;2.67;;;2.20;99.90;;;;;;5096045;28;20131;-71
2022/01/08 06:35:51;;;;;;;10.00;2.53;;;2.20;99.90;;;;;;5095099;28;20101;-70
2022/01/08 06:38:18;;;;;;;7.72;2.20;;;2.20;99.90;;;;;;5095989;28;20044;-75
2022/01/08 06:40:44;;;;;;;12.40;3.00;;;2.20;99.90;;;;;;5096213;28;20052;-70
2022/01/08 06:43:10;;;;;;;10.50;2.80;;;2.10;99.90;;;;;;5096119;28;20044;-70
2022/01/08 06:45:35;;;;;;;9.60;2.33;;;2.10;99.90;;;;;;5095827;28;20127;-71
2022/01/08 06:48:01;;;;;;;12.90;2.93;;;2.10;99.90;;;;;;5094842;28;20193;-71
2022/01/08 06:50:28;;;;;;;9.10;2.43;;;2.20;99.90;;;;;;5094303;28;20127;-70
2022/01/08 06:52:55;;;;;;;11.10;2.92;;;2.10;99.90;;;;;;5096005;28;20446;-71
2022/01/08 06:55:21;;;;;;;9.27;2.33;;;2.10;99.90;;;;;;5095581;28;20044;-71
2022/01/08 06:57:47;;;;;;;12.63;2.38;;;2.10;99.90;;;;;;5094573;28;20084;-70
2022/01/08 07:00:13;;;;;;;9.73;2.47;;;2.10;99.90;;;;;;5095853;28;20090;-71
2022/01/08 07:02:39;;;;;;;11.90;2.87;;;2.10;99.90;;;;;;5095551;28;20048;-71
2022/01/08 07:05:05;;;;;;;12.32;2.75;;;2.00;99.90;;;;;;5094756;28;20051;-70
2022/01/08 07:07:31;;;;;;;12.57;3.20;;;2.00;99.90;;;;;;5095382;28;20048;-70
2022/01/08 07:09:56;;;;;;;8.67;2.73;;;2.00;99.90;;;;;;5095636;28;20040;-71
2022/01/08 07:12:22;;;;;;;11.20;3.00;;;2.00;99.90;;;;;;5095355;28;20047;-71
2022/01/08 07:14:48;;;;;;;9.13;2.60;;;2.00;99.90;;;;;;5095816;28;20137;-71
2022/01/08 07:17:13;;;;;;;11.73;3.50;;;2.00;99.90;;;;;;5095523;28;20066;-70
2022/01/08 07:19:39;;;;;;;10.83;2.70;;;1.90;99.90;;;;;;5094905;28;20048;-70
2022/01/08 07:22:05;;;;;;;11.90;2.87;;;1.90;99.90;;;;;;5095776;28;20484;-70
2022/01/08 07:24:31;;;;;;;15.47;3.43;;;1.90;99.90;;;;;;5095090;28;20054;-71
2022/01/08 07:26:57;;;;;;;8.87;2.97;;;1.90;99.90;;;;;;5095356;28;20047;-70
2022/01/08 07:29:22;;;;;;;11.55;3.30;;;1.80;99.90;;;;;;5095269;28;20040;-70
2022/01/08 07:31:48;;;;;;;8.93;2.50;;;1.90;99.90;;;;;;5095226;28;20048;-71
2022/01/08 07:34:14;;;;;;;11.90;4.07;;;1.90;99.90;;;;;;5095359;28;20502;-70
2022/01/08 07:36:39;;;;;;;16.43;6.27;;;1.90;99.90;;;;;;5094797;28;20113;-70
2022/01/08 07:39:05;;;;;;;16.10;5.57;;;1.90;99.90;;;;;;5094152;28;20044;-71
2022/01/08 07:41:31;;;;;;;17.67;4.77;;;1.80;99.90;;;;;;5094467;28;20435;-70
2022/01/08 07:43:56;;;;;;;10.97;4.27;;;1.90;99.90;;;;;;5095003;28;20040;-70
2022/01/08 07:46:22;;;;;;;13.40;4.00;;;1.90;99.90;;;;;;5093750;28;20127;-70
2022/01/08 07:48:48;;;;;;;14.27;3.27;;;1.80;99.90;;;;;;5094594;28;20097;-70
2022/01/08 07:51:14;;;;;;;12.13;3.00;;;1.90;99.90;;;;;;5094892;28;20131;-71
2022/01/08 07:53:39;;;;;;;9.93;3.00;;;1.90;99.90;;;;;;5093528;28;20048;-70
2022/01/08 07:56:05;;;;;;;14.33;3.30;;;1.90;99.90;;;;;;5094886;28;20040;-70
2022/01/08 07:58:31;;;;;;;12.20;3.60;;;1.90;99.90;;;;;;5094345;28;20373;-71
2022/01/08 08:00:57;;;;;;;15.73;3.53;;;1.90;99.90;;;;;;5094709;28;20399;-70
2022/01/08 08:03:23;;;;;;;13.97;3.17;;;1.90;99.90;;;;;;5093712;28;20044;-70
2022/01/08 08:05:49;;;;;;;13.57;3.00;;;1.90;99.90;;;;;;5094306;28;20483;-71
2022/01/08 08:08:16;;;;;;;10.37;2.97;;;1.90;99.90;;;;;;5094544;28;20115;-71
2022/01/08 08:10:42;;;;;;;13.80;3.47;;;2.00;99.90;;;;;;5093959;28;20055;-71
2022/01/08 08:13:08;;;;;;;7.70;2.87;;;2.00;99.90;;;;;;5094537;28;20040;-70
2022/01/08 08:15:33;;;;;;;14.43;3.27;;;2.00;99.90;;;;;;5094169;28;20044;-71
2022/01/08 08:17:59;;;;;;;12.97;3.10;;;2.00;99.90;;;;;;5094585;28;20475;-70
2022/01/08 08:20:25;;;;;;;11.70;3.33;;;2.00;99.90;;;;;;5094129;28;20086;-70
2022/01/08 08:22:51;;;;;;;12.43;3.80;;;2.10;99.90;;;;;;5093710;28;20052;-71
2022/01/08 08:25:16;;;;;;;12.43;3.30;;;2.00;99.90;;;;;;5094232;28;20119;-70
2022/01/08 08:27:43;;;;;;;12.33;3.63;;;2.10;99.90;;;;;;5093913;28;20047;-71
2022/01/08 08:30:09;;;;;;;11.82;3.40;;;2.10;99.90;;;;;;5094110;28;20059;-70
2022/01/08 08:32:35;;;;;;;11.35;3.25;;;2.10;99.90;;;;;;5093691;28;20131;-70
2022/01/08 08:35:02;;;;;;;15.20;3.63;;;2.10;99.90;;;;;;5094165;28;20472;-70
2022/01/08 08:37:27;;;;;;;11.27;3.70;;;2.20;99.90;;;;;;5094032;28;20047;-70
2022/01/08 08:39:53;;;;;;;11.47;2.83;;;2.20;99.90;;;;;;5092359;28;20048;-70
2022/01/08 08:42:19;;;;;;;14.60;3.60;;;2.20;99.90;;;;;;5093896;28;20036;-70
2022/01/08 08:44:44;;;;;;;12.47;4.00;;;2.30;99.90;;;;;;5092430;28;20058;-70
2022/01/08 08:47:10;;;;;;;16.47;3.40;;;2.30;99.90;;;;;;5093649;28;20052;-70
2022/01/08 08:49:36;;;;;;;12.30;4.10;;;2.40;99.90;;;;;;5093546;28;20047;-71
2022/01/08 08:52:02;;;;;;;11.30;3.73;;;2.40;99.90;;;;;;5093830;28;20051;-70
2022/01/08 08:54:28;;;;;;;17.88;4.47;;;2.40;99.90;;;;;;5094067;28;20189;-70
2022/01/08 08:56:53;;;;;;;12.73;3.70;;;2.40;99.90;;;;;;5093083;28;20126;-70
2022/01/08 08:59:20;;;;;;;14.80;3.87;;;2.40;99.90;;;;;;5093510;28;20069;-71
2022/01/08 09:01:45;;;;;;;12.60;3.58;;;2.50;99.90;;;;;;5092904;28;20503;-70
2022/01/08 09:04:11;;;;;;;9.90;3.47;;;2.50;99.90;;;;;;5093511;28;20044;-70
2022/01/08 09:06:37;;;;;;;11.10;3.80;;;2.50;99.90;;;;;;5091985;28;20047;-70
2022/01/08 09:09:03;;;;;;;14.13;4.30;;;2.60;99.90;;;;;;5093557;28;20048;-70
2022/01/08 09:11:30;;;;;;;14.48;3.55;;;2.60;99.90;;;;;;5093476;28;20133;-70
2022/01/08 09:13:55;;;;;;;13.93;3.55;;;2.50;99.90;;;;;;5093052;28;20039;-70
2022/01/08 09:16:21;;;;;;;17.17;3.80;;;2.60;99.90;;;;;;5093363;28;20044;-70
2022/01/08 09:18:47;;;;;;;9.23;3.67;;;2.60;99.90;;;;;;5093018;28;20036;-70
2022/01/08 09:21:13;;;;;;;12.87;3.80;;;2.60;99.90;;;;;;5091259;28;20488;-70
2022/01/08 09:23:39;;;;;;;16.08;4.55;;;2.70;99.90;;;;;;5092924;28;20052;-71
2022/01/08 09:26:05;;;;;;;14.70;4.50;;;2.70;99.90;;;;;;5093186;28;20131;-70
2022/01/08 09:28:31;;;;;;;11.57;3.50;;;2.70;99.90;;;;;;5093169;28;20131;-70
2022/01/08 09:30:58;;;;;;;14.85;3.78;;;2.70;99.90;;;;;;5092869;28;20113;-71
2022/01/08 09:33:25;;;;;;;16.20;4.13;;;2.90;99.90;;;;;;5093411;28;20040;-70
2022/01/08 09:35:51;;;;;;;14.48;5.53;;;2.90;99.90;;;;;;5092847;28;20484;-71
2022/01/08 09:38:17;;;;;;;16.25;4.15;;;2.90;99.90;;;;;;5093031;28;20044;-71
2022/01/08 09:40:43;;;;;;;12.77;3.70;;;3.00;99.90;;;;;;5092812;28;20044;-71
2022/01/08 09:43:09;;;;;;;15.77;4.05;;;2.90;99.90;;;;;;5093137;28;20036;-71
2022/01/08 09:45:35;;;;;;;11.82;3.60;;;3.00;99.90;;;;;;5093079;28;20062;-71
2022/01/08 09:48:01;;;;;;;16.77;3.93;;;3.00;99.90;;;;;;5091856;28;20063;-71
2022/01/08 09:50:27;;;;;;;15.87;4.13;;;3.00;99.90;;;;;;5093143;28;20484;-71
2022/01/08 09:52:57;;;;;;;14.70;3.60;;;3.00;99.90;;;;;;5092795;28;20123;-71
2022/01/08 09:55:27;;;;;;;12.23;3.85;;;3.00;99.90;;;;;;5092784;28;20052;-71
2022/01/08 09:57:54;;;;;;;12.60;3.75;;;3.10;99.90;;;;;;5092875;28;20048;-70
2022/01/08 10:00:21;;;;;;;11.68;4.18;;;3.10;99.90;;;;;;5093042;28;20166;-71
2022/01/08 10:02:49;;;;;;;16.13;3.83;;;3.10;99.90;;;;;;5092585;28;20060;-70
2022/01/08 10:05:16;;;;;;;17.73;4.70;;;3.20;99.90;;;;;;5092877;28;20056;-70
2022/01/08 10:07:43;;;;;;;14.32;4.00;;;3.20;99.90;;;;;;5084492;28;20506;-77
2022/01/08 10:10:15;;;;;;;18.13;3.60;;;3.20;99.90;;;;;;5072557;28;20048;-71
2022/01/08 10:12:57;;;;;;;12.13;3.80;;;3.30;99.90;;;;;;5072536;28;20049;-70
2022/01/08 10:18:30;;;;;;;15.88;3.83;;;3.30;99.90;;;;;;5077354;28;20048;-71
2022/01/08 10:20:57;;;;;;;12.20;3.78;;;3.30;99.90;;;;;;5091057;28;20052;-71
2022/01/08 10:23:25;;;;;;;15.80;4.32;;;3.40;99.90;;;;;;5092566;28;20082;-72
2022/01/08 10:26:07;;;;;;;15.52;4.10;;;3.30;99.90;;;;;;5092290;28;20048;-71
2022/01/08 10:28:35;;;;;;;13.30;3.92;;;3.40;99.90;;;;;;5092674;28;20105;-71
2022/01/08 10:31:39;;;;;;;14.38;3.83;;;3.40;99.90;;;;;;5092002;28;20515;-73
2022/01/08 10:34:16;;;;;;;12.63;4.55;;;3.50;99.90;;;;;;5096220;28;20055;-74
2022/01/08 10:36:54;;;;;;;15.57;4.32;;;3.50;99.90;;;;;;5085955;28;20042;-74
2022/01/08 10:39:20;;;;;;;21.15;7.53;;;3.50;99.90;;;;;;5094677;28;20036;-72
2022/01/08 10:41:49;;;;;;;12.60;3.67;;;3.50;99.90;;;;;;5094566;28;20047;-78
2022/01/08 10:44:23;;;;;;;13.80;4.80;;;3.60;99.90;;;;;;5094833;28;20040;-71
2022/01/08 10:46:58;;;;;;;15.57;4.90;;;3.60;99.90;;;;;;5091560;28;20048;-75
2022/01/08 10:49:33;;;;;;;9.55;4.60;;;3.60;99.90;;;;;;5092550;28;20123;-73
2022/01/08 10:52:03;;;;;;;13.40;5.03;;;3.70;99.90;;;;;;5074814;28;20088;-73
2022/01/08 10:54:32;;;;;;;14.20;4.55;;;3.70;99.90;;;;;;5093214;28;20077;-71
2022/01/08 10:57:00;;;;;;;14.75;4.50;;;3.70;99.90;;;;;;5092798;28;20075;-74
2022/01/08 10:59:27;;;;;;;13.30;4.68;;;3.70;99.90;;;;;;5087705;28;20081;-76
2022/01/08 11:02:02;;;;;;;17.75;6.40;;;3.70;99.90;;;;;;5092800;28;20052;-74
2022/01/08 11:04:49;;;;;;;14.90;6.72;;;3.70;99.90;;;;;;5092063;28;20430;-71
2022/01/08 11:07:31;;;;;;;11.73;4.80;;;3.70;99.90;;;;;;5091854;28;20399;-72
2022/01/08 11:10:01;;;;;;;17.67;4.88;;;3.70;99.90;;;;;;5092571;28;20090;-71
2022/01/08 11:12:37;;;;;;;15.77;6.00;;;3.70;99.90;;;;;;5092552;28;20504;-73
2022/01/08 11:17:43;;;;;;;16.27;5.95;;;3.80;99.90;;;;;;5090499;28;20125;-73
2022/01/08 11:20:38;;;;;;;13.73;5.32;;;3.80;99.90;;;;;;5090328;28;20032;-73
2022/01/08 11:23:04;;;;;;;14.20;4.85;;;3.80;99.90;;;;;;5085758;28;20052;-73
2022/01/08 11:25:35;;;;;;;19.53;6.33;;;3.90;99.90;;;;;;5090920;28;20051;-71
2022/01/08 11:28:10;;;;;;;15.80;6.43;;;3.90;99.90;;;;;;5093401;28;20048;-73
2022/01/08 11:30:39;;;;;;;14.27;5.20;;;3.90;99.90;;;;;;5092029;28;20054;-72
2022/01/08 11:33:20;;;;;;;16.30;5.57;;;3.90;99.90;;;;;;5093408;28;20040;-73
2022/01/08 11:35:47;;;;;;;15.77;5.15;;;4.00;99.90;;;;;;5093775;28;20035;-72
2022/01/08 11:38:16;;;;;;;13.52;5.28;;;4.00;99.90;;;;;;5093694;28;20036;-71
2022/01/08 11:40:44;;;;;;;14.43;5.32;;;4.00;99.90;;;;;;5093706;28;20047;-72
2022/01/08 11:43:12;;;;;;;17.27;5.72;;;4.00;99.90;;;;;;5090273;28;20043;-71
2022/01/08 11:45:48;;;;;;;14.60;5.63;;;4.00;99.90;;;;;;5087280;28;20036;-71
2022/01/08 11:48:17;;;;;;;16.70;5.50;;;4.10;99.90;;;;;;5091113;28;20079;-72
2022/01/08 11:50:54;;;;;;;13.48;5.85;;;4.10;99.90;;;;;;5092228;28;20048;-70
2022/01/08 11:53:21;;;;;;;15.38;6.53;;;4.10;99.90;;;;;;5090721;28;20044;-69
2022/01/08 11:56:04;;;;;;;13.20;6.50;;;4.10;99.90;;;;;;5088604;28;20050;-71
2022/01/08 11:58:32;;;;;;;16.48;6.18;;;4.20;99.90;;;;;;5090755;28;20119;-78
2022/01/08 12:01:04;;;;;;;17.70;6.38;;;4.20;99.90;;;;;;5093183;28;20054;-71
2022/01/08 12:03:39;;;;;;;20.10;6.40;;;4.20;99.90;;;;;;5094342;28;20051;-73
2022/01/08 12:06:21;;;;;;;15.82;6.13;;;4.20;99.90;;;;;;5094373;28;20127;-72
2022/01/08 12:09:07;;;;;;;12.68;6.55;;;4.30;99.90;;;;;;5094498;28;20051;-72
2022/01/08 12:11:36;;;;;;;16.13;6.88;;;4.30;99.90;;;;;;5086236;28;20051;-72
2022/01/08 12:14:20;;;;;;;22.58;6.88;;;4.30;99.90;;;;;;5089353;28;20487;-72
2022/01/08 12:16:51;;;;;;;13.77;6.18;;;4.30;99.90;;;;;;5093896;28;20066;-73
2022/01/08 12:19:44;;;;;;;18.73;7.32;;;4.30;99.90;;;;;;5094443;28;20131;-73
2022/01/08 12:22:16;;;;;;;12.52;6.90;;;4.30;99.90;;;;;;5085028;28;20052;-73
2022/01/08 12:24:42;;;;;;;14.68;7.28;;;4.30;99.90;;;;;;5094217;28;20040;-72
2022/01/08 12:27:32;;;;;;;18.70;7.38;;;4.30;99.90;;;;;;5093846;28;20048;-72
2022/01/08 12:30:00;;;;;;;14.13;7.60;;;4.30;99.90;;;;;;5093766;28;20143;-72
2022/01/08 12:32:37;;;;;;;17.55;7.43;;;4.30;99.90;;;;;;5094047;28;20048;-72
2022/01/08 12:35:19;;;;;;;12.48;7.20;;;4.30;99.90;;;;;;5093753;28;20048;-73
2022/01/08 12:37:47;;;;;;;15.52;7.43;;;4.30;99.90;;;;;;5093916;28;20095;-72
2022/01/08 12:40:42;;;;;;;14.52;7.72;;;4.30;99.90;;;;;;5093647;28;20044;-72
2022/01/08 12:43:31;;;;;;;17.73;9.18;;;4.30;99.90;;;;;;5093660;28;20055;-73
2022/01/08 12:46:23;;;;;;;16.58;8.07;;;4.30;99.90;;;;;;5091935;28;20056;-74
2022/01/08 12:49:06;;;;;;;15.13;8.73;;;4.30;99.90;;;;;;5093828;28;20132;-71
2022/01/08 12:51:51;;;;;;;17.50;9.00;;;4.30;99.90;;;;;;5093892;28;20051;-72
2022/01/08 12:54:22;;;;;;;15.05;8.40;;;4.30;99.90;;;;;;5093464;28;20135;-72
2022/01/08 12:56:52;;;;;;;13.43;9.32;;;4.30;99.90;;;;;;5092844;28;20039;-71
2022/01/08 12:59:18;;;;;;;17.52;9.48;;;4.30;99.90;;;;;;5090181;28;20072;-72
2022/01/08 13:01:49;;;;;;;13.93;9.07;;;4.20;99.90;;;;;;5087484;28;20058;-72
2022/01/08 13:04:19;;;;;;;15.02;9.10;;;4.20;99.90;;;;;;5089940;28;20048;-72
2022/01/08 13:06:45;;;;;;;16.25;9.10;;;4.20;99.90;;;;;;5093432;28;20393;-73
2022/01/08 13:09:12;;;;;;;13.52;8.20;;;4.20;99.90;;;;;;5093126;28;20055;-71
2022/01/08 13:11:40;;;;;;;11.25;7.95;;;4.20;99.90;;;;;;5093289;28;20079;-72
2022/01/08 13:14:21;;;;;;;11.65;8.10;;;4.30;99.90;;;;;;5075307;28;20495;-73
2022/01/08 13:16:53;;;;;;;11.55;7.05;;;4.30;99.90;;;;;;5093287;28;20048;-71
2022/01/08 13:19:29;;;;;;;16.33;7.50;;;4.30;99.90;;;;;;5092825;28;20036;-72
2022/01/08 13:22:02;;;;;;;13.25;8.25;;;4.30;99.90;;;;;;5093523;28;20095;-76
2022/01/08 13:24:46;;;;;;;14.02;8.75;;;4.30;99.90;;;;;;5093692;28;20052;-78